Terminal Aerodrome Forecast
Issued by NWS North Platte, NE

Home | Current Version | Previous Version | Text Only | Print | Product List | Glossary On
Versions: 1 2 3 4 5 6 7 8 9 10 11 12 13 14
000
FTUS43 KLBF 300500
TAFLBF
TAF
KLBF 300520Z 3006/0106 VRB06KT P6SM SKC
     FM301700 22006KT P6SM SCT200
     FM302100 16007KT P6SM BKN150
     FM010000 12008KT P6SM VCTS BKN080CB=

USA.gov is the U.S. government's official web portal to all federal, state and local government web resources and services.